sensor_id;sensor_type;location;lat;lon;timestamp;temperature;humidity
16273;DHT22;8244;50.044;9.006;2022-10-24T00:00:05;13.80;99.90
16273;DHT22;8244;50.044;9.006;2022-10-24T00:05:11;13.70;99.90
16273;DHT22;8244;50.044;9.006;2022-10-24T00:10:14;13.60;99.90
16273;DHT22;8244;50.044;9.006;2022-10-24T00:15:16;13.40;99.90
16273;DHT22;8244;50.044;9.006;2022-10-24T00:20:19;13.30;99.90
16273;DHT22;8244;50.044;9.006;2022-10-24T00:25:21;13.30;99.90
16273;DHT22;8244;50.044;9.006;2022-10-24T00:30:23;13.30;99.90
16273;DHT22;8244;50.044;9.006;2022-10-24T00:35:26;13.30;99.90
16273;DHT22;8244;50.044;9.006;2022-10-24T00:40:27;13.30;99.90
16273;DHT22;8244;50.044;9.006;2022-10-24T00:45:43;13.40;99.90
16273;DHT22;8244;50.044;9.006;2022-10-24T00:50:50;13.40;99.90
16273;DHT22;8244;50.044;9.006;2022-10-24T00:55:55;13.40;99.90
16273;DHT22;8244;50.044;9.006;2022-10-24T01:00:58;13.50;99.90
16273;DHT22;8244;50.044;9.006;2022-10-24T01:06:20;13.50;99.90
16273;DHT22;8244;50.044;9.006;2022-10-24T01:11:36;13.50;99.90
16273;DHT22;8244;50.044;9.006;2022-10-24T01:16:44;13.50;99.90
16273;DHT22;8244;50.044;9.006;2022-10-24T01:21:51;13.50;99.90
16273;DHT22;8244;50.044;9.006;2022-10-24T01:32:41;13.40;99.90
16273;DHT22;8244;50.044;9.006;2022-10-24T01:37:47;13.40;99.90
16273;DHT22;8244;50.044;9.006;2022-10-24T01:42:53;13.30;99.90
16273;DHT22;8244;50.044;9.006;2022-10-24T01:48:01;13.30;99.90
16273;DHT22;8244;50.044;9.006;2022-10-24T01:53:04;13.40;99.90
16273;DHT22;8244;50.044;9.006;2022-10-24T01:58:07;13.40;99.90
16273;DHT22;8244;50.044;9.006;2022-10-24T02:03:18;13.50;99.90
16273;DHT22;8244;50.044;9.006;2022-10-24T02:08:25;13.50;99.90
16273;DHT22;8244;50.044;9.006;2022-10-24T02:13:31;13.60;99.90
16273;DHT22;8244;50.044;9.006;2022-10-24T02:18:36;13.60;99.90
16273;DHT22;8244;50.044;9.006;2022-10-24T02:23:43;13.60;99.90
16273;DHT22;8244;50.044;9.006;2022-10-24T02:28:49;13.70;99.90
16273;DHT22;8244;50.044;9.006;2022-10-24T02:33:54;13.80;99.90
16273;DHT22;8244;50.044;9.006;2022-10-24T02:38:57;13.80;99.90
16273;DHT22;8244;50.044;9.006;2022-10-24T02:44:00;13.80;99.90
16273;DHT22;8244;50.044;9.006;2022-10-24T02:49:04;13.80;99.90
16273;DHT22;8244;50.044;9.006;2022-10-24T02:54:07;13.90;99.90
16273;DHT22;8244;50.044;9.006;2022-10-24T02:59:09;13.80;99.90
16273;DHT22;8244;50.044;9.006;2022-10-24T03:04:12;13.80;99.90
16273;DHT22;8244;50.044;9.006;2022-10-24T03:09:14;13.80;99.90
16273;DHT22;8244;50.044;9.006;2022-10-24T03:14:16;13.80;99.90
16273;DHT22;8244;50.044;9.006;2022-10-24T03:19:19;13.90;99.90
16273;DHT22;8244;50.044;9.006;2022-10-24T03:24:21;14.00;99.90
16273;DHT22;8244;50.044;9.006;2022-10-24T03:29:22;14.00;99.90
16273;DHT22;8244;50.044;9.006;2022-10-24T03:34:25;14.10;99.90
16273;DHT22;8244;50.044;9.006;2022-10-24T03:39:27;14.10;99.90
16273;DHT22;8244;50.044;9.006;2022-10-24T03:44:29;14.10;99.90
16273;DHT22;8244;50.044;9.006;2022-10-24T03:49:32;14.20;99.90
16273;DHT22;8244;50.044;9.006;2022-10-24T03:54:33;14.20;99.90
16273;DHT22;8244;50.044;9.006;2022-10-24T03:59:36;14.20;99.90
16273;DHT22;8244;50.044;9.006;2022-10-24T04:04:39;14.20;99.90
16273;DHT22;8244;50.044;9.006;2022-10-24T04:09:41;14.30;99.90
16273;DHT22;8244;50.044;9.006;2022-10-24T04:14:43;14.30;99.90
16273;DHT22;8244;50.044;9.006;2022-10-24T04:19:46;14.40;99.90
16273;DHT22;8244;50.044;9.006;2022-10-24T04:24:47;14.40;99.90
16273;DHT22;8244;50.044;9.006;2022-10-24T04:29:49;14.50;99.90
16273;DHT22;8244;50.044;9.006;2022-10-24T04:34:52;14.50;99.90
16273;DHT22;8244;50.044;9.006;2022-10-24T04:39:54;14.50;99.90
16273;DHT22;8244;50.044;9.006;2022-10-24T04:44:55;14.50;99.90
16273;DHT22;8244;50.044;9.006;2022-10-24T04:49:58;14.50;99.90
16273;DHT22;8244;50.044;9.006;2022-10-24T04:55:00;14.50;99.90
16273;DHT22;8244;50.044;9.006;2022-10-24T05:00:03;14.50;99.90
16273;DHT22;8244;50.044;9.006;2022-10-24T05:05:07;14.50;99.90
16273;DHT22;8244;50.044;9.006;2022-10-24T05:10:09;14.50;99.90
16273;DHT22;8244;50.044;9.006;2022-10-24T05:15:11;14.50;99.90
16273;DHT22;8244;50.044;9.006;2022-10-24T05:20:15;14.50;99.90
16273;DHT22;8244;50.044;9.006;2022-10-24T05:25:17;14.50;99.90
16273;DHT22;8244;50.044;9.006;2022-10-24T05:30:19;14.50;99.90
16273;DHT22;8244;50.044;9.006;2022-10-24T05:35:22;14.60;99.90
16273;DHT22;8244;50.044;9.006;2022-10-24T05:40:23;14.60;99.90
16273;DHT22;8244;50.044;9.006;2022-10-24T05:45:25;14.50;99.90
16273;DHT22;8244;50.044;9.006;2022-10-24T05:50:28;14.60;99.90
16273;DHT22;8244;50.044;9.006;2022-10-24T05:55:30;14.60;99.90
16273;DHT22;8244;50.044;9.006;2022-10-24T06:00:33;14.60;99.90
16273;DHT22;8244;50.044;9.006;2022-10-24T06:05:36;14.60;99.90
16273;DHT22;8244;50.044;9.006;2022-10-24T06:10:38;14.60;99.90
16273;DHT22;8244;50.044;9.006;2022-10-24T06:15:40;14.60;99.90
16273;DHT22;8244;50.044;9.006;2022-10-24T06:20:43;14.60;99.90
16273;DHT22;8244;50.044;9.006;2022-10-24T06:25:45;14.70;99.90
16273;DHT22;8244;50.044;9.006;2022-10-24T06:30:48;14.60;99.90
16273;DHT22;8244;50.044;9.006;2022-10-24T06:35:51;14.60;99.90
16273;DHT22;8244;50.044;9.006;2022-10-24T06:40:53;14.70;99.90
16273;DHT22;8244;50.044;9.006;2022-10-24T06:45:54;14.70;99.90
16273;DHT22;8244;50.044;9.006;2022-10-24T06:50:58;14.80;99.90
16273;DHT22;8244;50.044;9.006;2022-10-24T06:56:00;14.80;99.90
16273;DHT22;8244;50.044;9.006;2022-10-24T07:01:06;14.80;99.90
16273;DHT22;8244;50.044;9.006;2022-10-24T07:06:14;14.90;99.90
16273;DHT22;8244;50.044;9.006;2022-10-24T07:11:16;14.90;99.90
16273;DHT22;8244;50.044;9.006;2022-10-24T07:16:18;15.00;99.90
16273;DHT22;8244;50.044;9.006;2022-10-24T07:21:23;15.10;99.90
16273;DHT22;8244;50.044;9.006;2022-10-24T07:26:26;15.10;99.90
16273;DHT22;8244;50.044;9.006;2022-10-24T07:31:29;15.20;99.90
16273;DHT22;8244;50.044;9.006;2022-10-24T07:36:33;15.30;99.90
16273;DHT22;8244;50.044;9.006;2022-10-24T07:41:37;15.40;99.90
16273;DHT22;8244;50.044;9.006;2022-10-24T07:46:40;15.40;99.90
16273;DHT22;8244;50.044;9.006;2022-10-24T07:51:44;15.50;99.90
16273;DHT22;8244;50.044;9.006;2022-10-24T07:56:45;15.60;99.90
16273;DHT22;8244;50.044;9.006;2022-10-24T08:01:47;15.60;99.90
16273;DHT22;8244;50.044;9.006;2022-10-24T08:06:50;15.70;99.90
16273;DHT22;8244;50.044;9.006;2022-10-24T08:11:53;15.80;99.90
16273;DHT22;8244;50.044;9.006;2022-10-24T08:16:54;15.90;99.90
16273;DHT22;8244;50.044;9.006;2022-10-24T08:21:58;16.00;99.90
16273;DHT22;8244;50.044;9.006;2022-10-24T08:27:00;16.20;99.90
16273;DHT22;8244;50.044;9.006;2022-10-24T08:32:02;16.40;99.90
16273;DHT22;8244;50.044;9.006;2022-10-24T08:37:05;16.50;99.90
16273;DHT22;8244;50.044;9.006;2022-10-24T08:42:10;16.70;99.90
16273;DHT22;8244;50.044;9.006;2022-10-24T08:47:18;16.90;99.90
16273;DHT22;8244;50.044;9.006;2022-10-24T08:52:27;17.20;99.90
16273;DHT22;8244;50.044;9.006;2022-10-24T08:57:31;17.30;99.90
16273;DHT22;8244;50.044;9.006;2022-10-24T09:02:35;17.50;99.90
16273;DHT22;8244;50.044;9.006;2022-10-24T09:07:44;17.50;99.90
16273;DHT22;8244;50.044;9.006;2022-10-24T09:12:47;17.60;99.90
16273;DHT22;8244;50.044;9.006;2022-10-24T09:17:48;17.60;99.90
16273;DHT22;8244;50.044;9.006;2022-10-24T09:22:52;17.70;99.90
16273;DHT22;8244;50.044;9.006;2022-10-24T09:27:56;17.90;99.90
16273;DHT22;8244;50.044;9.006;2022-10-24T09:32:59;18.30;99.90
16273;DHT22;8244;50.044;9.006;2022-10-24T09:38:26;18.70;99.90
16273;DHT22;8244;50.044;9.006;2022-10-24T09:43:34;19.10;99.90
16273;DHT22;8244;50.044;9.006;2022-10-24T09:48:46;19.70;99.90
16273;DHT22;8244;50.044;9.006;2022-10-24T09:54:24;20.20;99.90
16273;DHT22;8244;50.044;9.006;2022-10-24T09:59:34;20.50;99.90
16273;DHT22;8244;50.044;9.006;2022-10-24T10:04:36;20.60;99.90
16273;DHT22;8244;50.044;9.006;2022-10-24T10:09:48;20.60;99.90
16273;DHT22;8244;50.044;9.006;2022-10-24T10:14:50;20.60;99.90
16273;DHT22;8244;50.044;9.006;2022-10-24T10:19:53;20.70;99.90
16273;DHT22;8244;50.044;9.006;2022-10-24T10:24:56;20.80;99.90
16273;DHT22;8244;50.044;9.006;2022-10-24T10:30:14;21.00;99.90
16273;DHT22;8244;50.044;9.006;2022-10-24T10:35:19;21.30;99.90
16273;DHT22;8244;50.044;9.006;2022-10-24T10:40:28;21.50;99.90
16273;DHT22;8244;50.044;9.006;2022-10-24T10:45:34;21.60;99.90
16273;DHT22;8244;50.044;9.006;2022-10-24T10:50:40;21.80;99.90
16273;DHT22;8244;50.044;9.006;2022-10-24T10:55:50;21.90;99.90
16273;DHT22;8244;50.044;9.006;2022-10-24T11:00:57;21.80;99.90
16273;DHT22;8244;50.044;9.006;2022-10-24T11:06:14;21.90;99.90
16273;DHT22;8244;50.044;9.006;2022-10-24T11:11:23;22.00;99.90
16273;DHT22;8244;50.044;9.006;2022-10-24T11:16:27;22.20;99.90
16273;DHT22;8244;50.044;9.006;2022-10-24T11:21:31;22.40;99.90
16273;DHT22;8244;50.044;9.006;2022-10-24T11:26:37;22.50;99.90
16273;DHT22;8244;50.044;9.006;2022-10-24T11:31:43;22.50;99.90
16273;DHT22;8244;50.044;9.006;2022-10-24T11:36:50;22.50;99.90
16273;DHT22;8244;50.044;9.006;2022-10-24T11:41:58;22.40;99.90
16273;DHT22;8244;50.044;9.006;2022-10-24T11:47:10;22.40;99.90
16273;DHT22;8244;50.044;9.006;2022-10-24T11:52:19;22.40;99.90
16273;DHT22;8244;50.044;9.006;2022-10-24T11:57:26;22.50;99.90
16273;DHT22;8244;50.044;9.006;2022-10-24T12:02:51;22.60;99.90
16273;DHT22;8244;50.044;9.006;2022-10-24T12:08:12;22.80;99.90
16273;DHT22;8244;50.044;9.006;2022-10-24T12:13:34;22.90;99.90
16273;DHT22;8244;50.044;9.006;2022-10-24T12:18:41;22.80;99.90
16273;DHT22;8244;50.044;9.006;2022-10-24T12:23:52;22.70;99.90
16273;DHT22;8244;50.044;9.006;2022-10-24T12:28:57;22.60;99.90
16273;DHT22;8244;50.044;9.006;2022-10-24T12:34:29;22.40;99.90
16273;DHT22;8244;50.044;9.006;2022-10-24T12:39:33;22.20;99.90
16273;DHT22;8244;50.044;9.006;2022-10-24T12:44:41;22.20;99.90
16273;DHT22;8244;50.044;9.006;2022-10-24T12:49:43;22.20;99.90
16273;DHT22;8244;50.044;9.006;2022-10-24T12:54:45;22.20;99.90
16273;DHT22;8244;50.044;9.006;2022-10-24T12:59:50;22.10;99.90
16273;DHT22;8244;50.044;9.006;2022-10-24T13:05:01;22.20;99.90
16273;DHT22;8244;50.044;9.006;2022-10-24T13:10:17;22.30;99.90
16273;DHT22;8244;50.044;9.006;2022-10-24T13:15:30;22.30;99.90
16273;DHT22;8244;50.044;9.006;2022-10-24T13:20:38;22.20;99.90
16273;DHT22;8244;50.044;9.006;2022-10-24T13:25:41;22.10;99.90
16273;DHT22;8244;50.044;9.006;2022-10-24T13:30:45;22.00;99.90
16273;DHT22;8244;50.044;9.006;2022-10-24T13:35:47;22.00;99.90
16273;DHT22;8244;50.044;9.006;2022-10-24T13:40:49;22.00;99.90
16273;DHT22;8244;50.044;9.006;2022-10-24T13:45:56;22.00;99.90
16273;DHT22;8244;50.044;9.006;2022-10-24T13:51:04;22.00;99.90
16273;DHT22;8244;50.044;9.006;2022-10-24T13:56:08;21.90;99.90
16273;DHT22;8244;50.044;9.006;2022-10-24T14:01:16;21.90;99.90
16273;DHT22;8244;50.044;9.006;2022-10-24T14:06:23;21.80;99.90
16273;DHT22;8244;50.044;9.006;2022-10-24T14:11:26;21.60;99.90
16273;DHT22;8244;50.044;9.006;2022-10-24T14:16:32;21.60;99.90
16273;DHT22;8244;50.044;9.006;2022-10-24T14:21:39;21.50;99.90
16273;DHT22;8244;50.044;9.006;2022-10-24T14:26:41;21.40;99.90
16273;DHT22;8244;50.044;9.006;2022-10-24T14:31:53;21.30;99.90
16273;DHT22;8244;50.044;9.006;2022-10-24T14:36:58;21.20;99.90
16273;DHT22;8244;50.044;9.006;2022-10-24T14:42:01;21.20;99.90
16273;DHT22;8244;50.044;9.006;2022-10-24T14:47:16;21.20;99.90
16273;DHT22;8244;50.044;9.006;2022-10-24T14:52:24;21.10;99.90
16273;DHT22;8244;50.044;9.006;2022-10-24T14:57:26;20.90;99.90
16273;DHT22;8244;50.044;9.006;2022-10-24T15:02:31;20.90;99.90
16273;DHT22;8244;50.044;9.006;2022-10-24T15:07:36;20.90;99.90
16273;DHT22;8244;50.044;9.006;2022-10-24T15:12:40;20.80;99.90
16273;DHT22;8244;50.044;9.006;2022-10-24T15:17:43;20.80;99.90
16273;DHT22;8244;50.044;9.006;2022-10-24T15:22:46;20.70;99.90
16273;DHT22;8244;50.044;9.006;2022-10-24T15:27:50;20.50;99.90
16273;DHT22;8244;50.044;9.006;2022-10-24T15:33:00;20.40;99.90
16273;DHT22;8244;50.044;9.006;2022-10-24T15:38:11;20.30;99.90
16273;DHT22;8244;50.044;9.006;2022-10-24T15:43:15;20.10;99.90
16273;DHT22;8244;50.044;9.006;2022-10-24T15:48:19;20.00;99.90
16273;DHT22;8244;50.044;9.006;2022-10-24T15:53:21;19.80;99.90
16273;DHT22;8244;50.044;9.006;2022-10-24T15:58:23;19.60;99.90
16273;DHT22;8244;50.044;9.006;2022-10-24T16:03:26;19.50;99.90
16273;DHT22;8244;50.044;9.006;2022-10-24T16:08:28;19.40;99.90
16273;DHT22;8244;50.044;9.006;2022-10-24T16:13:29;19.20;99.90
16273;DHT22;8244;50.044;9.006;2022-10-24T16:18:32;19.10;99.90
16273;DHT22;8244;50.044;9.006;2022-10-24T16:23:34;19.00;99.90
16273;DHT22;8244;50.044;9.006;2022-10-24T16:28:36;18.90;99.90
16273;DHT22;8244;50.044;9.006;2022-10-24T16:33:39;18.80;99.90
16273;DHT22;8244;50.044;9.006;2022-10-24T16:38:41;18.70;99.90
16273;DHT22;8244;50.044;9.006;2022-10-24T16:43:44;18.60;99.90
16273;DHT22;8244;50.044;9.006;2022-10-24T16:48:47;18.50;99.90
16273;DHT22;8244;50.044;9.006;2022-10-24T16:53:49;18.30;99.90
16273;DHT22;8244;50.044;9.006;2022-10-24T16:58:51;18.20;99.90
16273;DHT22;8244;50.044;9.006;2022-10-24T17:03:54;18.00;99.90
16273;DHT22;8244;50.044;9.006;2022-10-24T17:08:56;17.80;99.90
16273;DHT22;8244;50.044;9.006;2022-10-24T17:13:57;17.70;99.90
16273;DHT22;8244;50.044;9.006;2022-10-24T17:19:00;17.50;99.90
16273;DHT22;8244;50.044;9.006;2022-10-24T17:24:02;17.30;99.90
16273;DHT22;8244;50.044;9.006;2022-10-24T17:29:05;17.10;99.90
16273;DHT22;8244;50.044;9.006;2022-10-24T17:34:09;16.90;99.90
16273;DHT22;8244;50.044;9.006;2022-10-24T17:39:13;16.80;99.90
16273;DHT22;8244;50.044;9.006;2022-10-24T17:44:18;16.60;99.90
16273;DHT22;8244;50.044;9.006;2022-10-24T17:49:21;16.40;99.90
16273;DHT22;8244;50.044;9.006;2022-10-24T17:54:23;16.30;99.90
16273;DHT22;8244;50.044;9.006;2022-10-24T17:59:24;16.10;99.90
16273;DHT22;8244;50.044;9.006;2022-10-24T18:04:27;15.90;99.90
16273;DHT22;8244;50.044;9.006;2022-10-24T18:09:29;15.70;99.90
16273;DHT22;8244;50.044;9.006;2022-10-24T18:14:31;15.60;99.90
16273;DHT22;8244;50.044;9.006;2022-10-24T18:19:34;15.40;99.90
16273;DHT22;8244;50.044;9.006;2022-10-24T18:24:36;15.30;99.90
16273;DHT22;8244;50.044;9.006;2022-10-24T18:29:37;15.10;99.90
16273;DHT22;8244;50.044;9.006;2022-10-24T18:34:40;15.00;99.90
16273;DHT22;8244;50.044;9.006;2022-10-24T18:39:42;14.90;99.90
16273;DHT22;8244;50.044;9.006;2022-10-24T18:44:45;14.80;99.90
16273;DHT22;8244;50.044;9.006;2022-10-24T18:49:49;14.70;99.90
16273;DHT22;8244;50.044;9.006;2022-10-24T18:55:00;14.50;99.90
16273;DHT22;8244;50.044;9.006;2022-10-24T19:00:04;14.40;99.90
16273;DHT22;8244;50.044;9.006;2022-10-24T19:05:16;14.30;99.90
16273;DHT22;8244;50.044;9.006;2022-10-24T19:10:21;14.30;99.90
16273;DHT22;8244;50.044;9.006;2022-10-24T19:15:24;14.30;99.90
16273;DHT22;8244;50.044;9.006;2022-10-24T19:20:27;14.30;99.90
16273;DHT22;8244;50.044;9.006;2022-10-24T19:25:32;14.30;99.90
16273;DHT22;8244;50.044;9.006;2022-10-24T19:30:33;14.40;99.90
16273;DHT22;8244;50.044;9.006;2022-10-24T19:35:39;14.40;99.90
16273;DHT22;8244;50.044;9.006;2022-10-24T19:40:46;14.50;99.90
16273;DHT22;8244;50.044;9.006;2022-10-24T19:45:49;14.50;99.90
16273;DHT22;8244;50.044;9.006;2022-10-24T19:51:00;14.60;99.90
16273;DHT22;8244;50.044;9.006;2022-10-24T19:56:03;14.60;99.90
16273;DHT22;8244;50.044;9.006;2022-10-24T20:01:07;14.60;99.90
16273;DHT22;8244;50.044;9.006;2022-10-24T20:06:11;14.60;99.90
16273;DHT22;8244;50.044;9.006;2022-10-24T20:11:13;14.60;99.90
16273;DHT22;8244;50.044;9.006;2022-10-24T20:16:16;14.60;99.90
16273;DHT22;8244;50.044;9.006;2022-10-24T20:21:19;14.70;99.90
16273;DHT22;8244;50.044;9.006;2022-10-24T20:26:22;14.70;99.90
16273;DHT22;8244;50.044;9.006;2022-10-24T20:31:26;14.70;99.90
16273;DHT22;8244;50.044;9.006;2022-10-24T20:36:30;14.60;99.90
16273;DHT22;8244;50.044;9.006;2022-10-24T20:41:33;14.50;99.90
16273;DHT22;8244;50.044;9.006;2022-10-24T20:46:35;14.50;99.90
16273;DHT22;8244;50.044;9.006;2022-10-24T20:51:39;14.40;99.90
16273;DHT22;8244;50.044;9.006;2022-10-24T20:56:41;14.40;99.90
16273;DHT22;8244;50.044;9.006;2022-10-24T21:01:43;14.40;99.90
16273;DHT22;8244;50.044;9.006;2022-10-24T21:06:46;14.30;99.90
16273;DHT22;8244;50.044;9.006;2022-10-24T21:11:48;14.30;99.90
16273;DHT22;8244;50.044;9.006;2022-10-24T21:16:49;14.20;99.90
16273;DHT22;8244;50.044;9.006;2022-10-24T21:21:52;14.30;99.90
16273;DHT22;8244;50.044;9.006;2022-10-24T21:26:54;14.40;99.90
16273;DHT22;8244;50.044;9.006;2022-10-24T21:31:56;14.40;99.90
16273;DHT22;8244;50.044;9.006;2022-10-24T21:36:59;14.40;99.90
16273;DHT22;8244;50.044;9.006;2022-10-24T21:42:00;14.30;99.90
16273;DHT22;8244;50.044;9.006;2022-10-24T21:47:02;14.30;99.90
16273;DHT22;8244;50.044;9.006;2022-10-24T21:52:05;14.30;99.90
16273;DHT22;8244;50.044;9.006;2022-10-24T21:57:07;14.20;99.90
16273;DHT22;8244;50.044;9.006;2022-10-24T22:02:08;14.10;99.90
16273;DHT22;8244;50.044;9.006;2022-10-24T22:07:12;14.10;99.90
16273;DHT22;8244;50.044;9.006;2022-10-24T22:12:13;14.00;99.90
16273;DHT22;8244;50.044;9.006;2022-10-24T22:17:15;14.00;99.90
16273;DHT22;8244;50.044;9.006;2022-10-24T22:22:18;13.90;99.90
16273;DHT22;8244;50.044;9.006;2022-10-24T22:27:20;13.80;99.90
16273;DHT22;8244;50.044;9.006;2022-10-24T22:32:22;13.80;99.90
16273;DHT22;8244;50.044;9.006;2022-10-24T22:37:27;13.70;99.90
16273;DHT22;8244;50.044;9.006;2022-10-24T22:42:30;13.60;99.90
16273;DHT22;8244;50.044;9.006;2022-10-24T22:47:44;13.60;99.90
16273;DHT22;8244;50.044;9.006;2022-10-24T22:52:54;13.60;99.90
16273;DHT22;8244;50.044;9.006;2022-10-24T22:57:56;13.50;99.90
16273;DHT22;8244;50.044;9.006;2022-10-24T23:03:05;13.50;99.90
16273;DHT22;8244;50.044;9.006;2022-10-24T23:08:21;13.50;99.90
16273;DHT22;8244;50.044;9.006;2022-10-24T23:13:26;13.50;99.90
16273;DHT22;8244;50.044;9.006;2022-10-24T23:18:28;13.50;99.90
16273;DHT22;8244;50.044;9.006;2022-10-24T23:23:31;13.50;99.90
16273;DHT22;8244;50.044;9.006;2022-10-24T23:28:36;13.50;99.90
16273;DHT22;8244;50.044;9.006;2022-10-24T23:33:40;13.50;99.90
16273;DHT22;8244;50.044;9.006;2022-10-24T23:38:44;13.50;99.90
16273;DHT22;8244;50.044;9.006;2022-10-24T23:43:46;13.40;99.90
16273;DHT22;8244;50.044;9.006;2022-10-24T23:48:56;13.40;99.90
16273;DHT22;8244;50.044;9.006;2022-10-24T23:54:05;13.30;99.90
16273;DHT22;8244;50.044;9.006;2022-10-24T23:59:08;13.30;99.90
